5AL8 weather

Fairlane Airport
Samson, Alabama, United States

Public forecast

Using degrees Fahrenheit for public forecast. Weather courtesy of forecast.io.

METAR (pilot weather report)

Closest report is Enterprise Municipal Airport, 12.6 nm (23.4 km) NNE. Retrieved 2018/07/15 22:35 UTC (0 seconds ago):

KEDN 152235Z AUTO 00000KT 10SM SCT100 24/24 A3002 RMK AO2 LTG DSNT E THRU S T02400237

TAF (pilot weather forecast)

Forecast is more than 6 hours old.

Closest forecast is Cairns AAF (Fort Rucker) Air Field, 17.6 nm (32.7 km) NE. Retrieved 2018/07/15 16:06 UTC (6 hours ago):

TAF KOZR 151600Z 1516/1622 18006KT 9999 FEW050 QNH3004INS BECMG 1517/1518 18008KT 8000 -SHRA VCTS BKN050CB QNH3000INS TEMPO 1518/1520 VRB12G20KT 4800 -TSRA BKN025CB BECMG 1523/1524 20006KT 9999 NSW BKN030 QNH3002INS BECMG 1608/1609 VRB06KT 9999 BKN015 QNH3005INS BECMG 1612/1613 18006KT 9999 FEW025 SCT050 QNH3006INS BECMG 1617/1618 18008KT 8000 -SHRA VCTS BKN050CB QNH3001INS TX33/1521Z TN25/1609Z